sensor_id;sensor_type;location;lat;lon;timestamp;pressure;altitude;pressure_sealevel;temperature;humidity
20350;BME280;10332;50.208;18.988;2023-03-20T00:02:22;97987.50;;;11.01;48.91
20350;BME280;10332;50.208;18.988;2023-03-20T00:04:50;97990.09;;;11.01;48.81
20350;BME280;10332;50.208;18.988;2023-03-20T00:07:17;97989.09;;;10.91;49.12
20350;BME280;10332;50.208;18.988;2023-03-20T00:09:45;97993.56;;;11.02;48.67
20350;BME280;10332;50.208;18.988;2023-03-20T00:12:19;97993.06;;;10.97;49.00
20350;BME280;10332;50.208;18.988;2023-03-20T00:14:48;97994.09;;;10.94;49.04
20350;BME280;10332;50.208;18.988;2023-03-20T00:17:19;97994.84;;;10.96;48.89
20350;BME280;10332;50.208;18.988;2023-03-20T00:19:47;97989.09;;;10.91;49.12
20350;BME280;10332;50.208;18.988;2023-03-20T00:22:15;97995.75;;;10.95;48.96
20350;BME280;10332;50.208;18.988;2023-03-20T00:24:42;97992.13;;;10.85;49.33
20350;BME280;10332;50.208;18.988;2023-03-20T00:27:13;97996.00;;;10.92;49.02
20350;BME280;10332;50.208;18.988;2023-03-20T00:29:42;97990.25;;;10.87;49.39
20350;BME280;10332;50.208;18.988;2023-03-20T00:32:14;97990.25;;;10.87;49.26
20350;BME280;10332;50.208;18.988;2023-03-20T00:34:41;97992.97;;;10.86;49.35
20350;BME280;10332;50.208;18.988;2023-03-20T00:37:10;97985.66;;;10.91;49.41
20350;BME280;10332;50.208;18.988;2023-03-20T00:39:38;97982.31;;;10.89;49.32
20350;BME280;10332;50.208;18.988;2023-03-20T00:42:21;97987.91;;;10.95;49.18
20350;BME280;10332;50.208;18.988;2023-03-20T00:44:55;97990.03;;;10.90;49.42
20350;BME280;10332;50.208;18.988;2023-03-20T00:47:27;97984.19;;;10.87;49.41
20350;BME280;10332;50.208;18.988;2023-03-20T00:49:56;97984.66;;;10.80;49.72
20350;BME280;10332;50.208;18.988;2023-03-20T00:52:25;97983.16;;;10.89;49.45
20350;BME280;10332;50.208;18.988;2023-03-20T00:54:52;97980.84;;;10.85;49.56
20350;BME280;10332;50.208;18.988;2023-03-20T00:57:31;97976.69;;;10.82;49.81
20350;BME280;10332;50.208;18.988;2023-03-20T01:00:07;97974.88;;;10.95;49.12
20350;BME280;10332;50.208;18.988;2023-03-20T01:02:35;97976.03;;;10.91;49.28
20350;BME280;10332;50.208;18.988;2023-03-20T01:05:02;97975.16;;;11.03;48.84
20350;BME280;10332;50.208;18.988;2023-03-20T01:07:32;97964.94;;;11.00;49.33
20350;BME280;10332;50.208;18.988;2023-03-20T01:09:59;97961.59;;;10.98;49.25
20350;BME280;10332;50.208;18.988;2023-03-20T01:12:27;97963.03;;;11.02;49.10
20350;BME280;10332;50.208;18.988;2023-03-20T01:14:57;97967.19;;;11.05;49.00
20350;BME280;10332;50.208;18.988;2023-03-20T01:17:26;97968.25;;;11.02;49.28
20350;BME280;10332;50.208;18.988;2023-03-20T01:19:54;97959.81;;;10.99;49.37
20350;BME280;10332;50.208;18.988;2023-03-20T01:22:22;97967.03;;;10.95;49.51
20350;BME280;10332;50.208;18.988;2023-03-20T01:24:49;97961.13;;;11.04;49.12
20350;BME280;10332;50.208;18.988;2023-03-20T01:27:19;97963.41;;;10.85;49.50
20350;BME280;10332;50.208;18.988;2023-03-20T01:29:47;97959.75;;;11.12;48.91
20350;BME280;10332;50.208;18.988;2023-03-20T01:32:17;97968.25;;;11.02;49.16
20350;BME280;10332;50.208;18.988;2023-03-20T01:34:45;97972.81;;;11.12;48.95
20350;BME280;10332;50.208;18.988;2023-03-20T01:37:22;97963.19;;;11.12;48.97
20350;BME280;10332;50.208;18.988;2023-03-20T01:39:50;97965.09;;;11.10;49.03
20350;BME280;10332;50.208;18.988;2023-03-20T01:42:19;97972.22;;;11.08;49.35
20350;BME280;10332;50.208;18.988;2023-03-20T01:44:46;97962.38;;;11.12;49.25
20350;BME280;10332;50.208;18.988;2023-03-20T01:47:22;97974.31;;;11.03;49.38
20350;BME280;10332;50.208;18.988;2023-03-20T01:50:29;97968.16;;;11.04;49.14
20350;BME280;10332;50.208;18.988;2023-03-20T01:53:15;97977.75;;;11.03;49.19
20350;BME280;10332;50.208;18.988;2023-03-20T01:55:46;97979.94;;;11.09;49.23
20350;BME280;10332;50.208;18.988;2023-03-20T01:58:20;97972.94;;;11.10;49.19
20350;BME280;10332;50.208;18.988;2023-03-20T02:00:49;97978.59;;;11.04;49.38
20350;BME280;10332;50.208;18.988;2023-03-20T02:03:18;97976.91;;;11.16;48.94
20350;BME280;10332;50.208;18.988;2023-03-20T02:05:47;97972.44;;;11.05;49.53
20350;BME280;10332;50.208;18.988;2023-03-20T02:10:48;97982.28;;;11.01;49.60
20350;BME280;10332;50.208;18.988;2023-03-20T02:13:16;97983.88;;;10.91;49.77
20350;BME280;10332;50.208;18.988;2023-03-20T02:18:21;97986.63;;;10.77;50.31
20350;BME280;10332;50.208;18.988;2023-03-20T02:40:17;97979.84;;;10.74;49.99
20350;BME280;10332;50.208;18.988;2023-03-20T02:43:01;97969.63;;;10.71;50.17
20350;BME280;10332;50.208;18.988;2023-03-20T02:45:53;97979.44;;;10.68;50.51
20350;BME280;10332;50.208;18.988;2023-03-20T03:00:32;97968.44;;;10.88;49.71
20350;BME280;10332;50.208;18.988;2023-03-20T03:03:20;97961.63;;;10.86;49.80
20350;BME280;10332;50.208;18.988;2023-03-20T03:06:08;97959.97;;;10.85;50.10
20350;BME280;10332;50.208;18.988;2023-03-20T03:08:46;97971.94;;;11.00;49.51
20350;BME280;10332;50.208;18.988;2023-03-20T03:11:16;97959.00;;;10.98;49.47
20350;BME280;10332;50.208;18.988;2023-03-20T03:13:52;97969.75;;;10.94;49.77
20350;BME280;10332;50.208;18.988;2023-03-20T03:16:27;97976.03;;;10.91;49.84
20350;BME280;10332;50.208;18.988;2023-03-20T03:19:13;97980.31;;;10.92;49.63
20350;BME280;10332;50.208;18.988;2023-03-20T03:21:46;97976.16;;;10.90;49.85
20350;BME280;10332;50.208;18.988;2023-03-20T03:24:34;97968.59;;;10.98;49.47
20350;BME280;10332;50.208;18.988;2023-03-20T03:27:30;97977.00;;;10.90;49.68
20350;BME280;10332;50.208;18.988;2023-03-20T03:30:12;97970.22;;;10.88;49.84
20350;BME280;10332;50.208;18.988;2023-03-20T03:33:13;97973.97;;;10.84;49.93
20350;BME280;10332;50.208;18.988;2023-03-20T03:35:45;97978.75;;;10.90;49.63
20350;BME280;10332;50.208;18.988;2023-03-20T03:41:09;97972.19;;;10.84;49.91
20350;BME280;10332;50.208;18.988;2023-03-20T03:43:49;97968.44;;;10.75;50.18
20350;BME280;10332;50.208;18.988;2023-03-20T03:46:52;97963.78;;;10.68;50.64
20350;BME280;10332;50.208;18.988;2023-03-20T03:49:47;97968.03;;;10.69;50.72
20350;BME280;10332;50.208;18.988;2023-03-20T03:52:21;97967.97;;;10.58;50.87
20350;BME280;10332;50.208;18.988;2023-03-20T03:55:02;97959.19;;;10.59;51.02
20350;BME280;10332;50.208;18.988;2023-03-20T03:57:36;97956.81;;;10.56;51.17
20350;BME280;10332;50.208;18.988;2023-03-20T04:00:23;97972.69;;;10.52;51.13
20350;BME280;10332;50.208;18.988;2023-03-20T04:02:56;97970.38;;;10.61;50.79
20350;BME280;10332;50.208;18.988;2023-03-20T04:05:29;97970.38;;;10.61;51.11
20350;BME280;10332;50.208;18.988;2023-03-20T04:08:00;97967.56;;;10.64;50.85
20350;BME280;10332;50.208;18.988;2023-03-20T04:10:28;97967.56;;;10.64;51.02
20350;BME280;10332;50.208;18.988;2023-03-20T04:12:55;97962.56;;;10.61;51.08
20350;BME280;10332;50.208;18.988;2023-03-20T04:15:23;97970.69;;;10.56;51.27
20350;BME280;10332;50.208;18.988;2023-03-20T04:17:50;97972.13;;;10.60;51.24
20350;BME280;10332;50.208;18.988;2023-03-20T04:20:18;97960.44;;;10.66;50.77
20350;BME280;10332;50.208;18.988;2023-03-20T04:22:45;97969.44;;;10.62;50.91
20350;BME280;10332;50.208;18.988;2023-03-20T04:25:23;97968.09;;;10.56;51.16
20350;BME280;10332;50.208;18.988;2023-03-20T04:27:52;97969.69;;;10.46;51.64
20350;BME280;10332;50.208;18.988;2023-03-20T04:30:20;97970.63;;;10.45;51.69
20350;BME280;10332;50.208;18.988;2023-03-20T04:32:47;97968.84;;;10.45;51.69
20350;BME280;10332;50.208;18.988;2023-03-20T04:35:15;97973.16;;;10.34;52.38
20350;BME280;10332;50.208;18.988;2023-03-20T04:37:42;97964.38;;;10.35;51.96
20350;BME280;10332;50.208;18.988;2023-03-20T04:40:10;97969.59;;;10.35;52.37
20350;BME280;10332;50.208;18.988;2023-03-20T04:42:39;97961.53;;;10.38;51.73
20350;BME280;10332;50.208;18.988;2023-03-20T04:45:08;97970.44;;;10.35;52.13
20350;BME280;10332;50.208;18.988;2023-03-20T04:47:35;97974.06;;;10.33;52.38
20350;BME280;10332;50.208;18.988;2023-03-20T04:50:03;97972.50;;;10.30;52.38
20350;BME280;10332;50.208;18.988;2023-03-20T04:52:31;97971.66;;;10.30;52.74
20350;BME280;10332;50.208;18.988;2023-03-20T04:54:59;97974.38;;;10.28;52.60
20350;BME280;10332;50.208;18.988;2023-03-20T04:57:26;97977.81;;;10.41;52.33
20350;BME280;10332;50.208;18.988;2023-03-20T04:59:54;97974.81;;;10.35;52.72
20350;BME280;10332;50.208;18.988;2023-03-20T05:02:22;97980.34;;;10.30;52.69
20350;BME280;10332;50.208;18.988;2023-03-20T05:04:49;97990.78;;;10.30;52.75
20350;BME280;10332;50.208;18.988;2023-03-20T05:07:17;97986.59;;;10.28;53.00
20350;BME280;10332;50.208;18.988;2023-03-20T05:09:44;97993.91;;;10.22;53.13
20350;BME280;10332;50.208;18.988;2023-03-20T05:12:12;97996.91;;;10.16;53.37
20350;BME280;10332;50.208;18.988;2023-03-20T05:14:40;97986.97;;;10.21;52.94
20350;BME280;10332;50.208;18.988;2023-03-20T05:17:07;97990.25;;;10.25;52.59
20350;BME280;10332;50.208;18.988;2023-03-20T05:19:35;97993.47;;;10.29;52.67
20350;BME280;10332;50.208;18.988;2023-03-20T05:22:02;97986.38;;;10.31;52.73
20350;BME280;10332;50.208;18.988;2023-03-20T05:24:30;97992.03;;;10.37;52.47
20350;BME280;10332;50.208;18.988;2023-03-20T05:26:58;97988.16;;;10.43;52.21
20350;BME280;10332;50.208;18.988;2023-03-20T05:29:25;97981.38;;;10.53;51.81
20350;BME280;10332;50.208;18.988;2023-03-20T05:31:53;97992.09;;;10.61;51.80
20350;BME280;10332;50.208;18.988;2023-03-20T05:34:21;97993.44;;;10.67;52.14
20350;BME280;10332;50.208;18.988;2023-03-20T05:36:50;97999.66;;;10.77;51.83
20350;BME280;10332;50.208;18.988;2023-03-20T05:39:18;98003.09;;;10.90;51.87
20350;BME280;10332;50.208;18.988;2023-03-20T05:41:45;97997.50;;;11.07;51.13
20350;BME280;10332;50.208;18.988;2023-03-20T05:44:13;97993.47;;;11.27;50.99
20350;BME280;10332;50.208;18.988;2023-03-20T05:46:40;97998.88;;;11.48;50.85
20350;BME280;10332;50.208;18.988;2023-03-20T05:49:08;97995.44;;;11.72;50.41
20350;BME280;10332;50.208;18.988;2023-03-20T05:51:35;97993.16;;;12.02;49.94
20350;BME280;10332;50.208;18.988;2023-03-20T05:54:03;97996.41;;;12.28;49.59
20350;BME280;10332;50.208;18.988;2023-03-20T05:56:31;97997.25;;;12.51;49.16
20350;BME280;10332;50.208;18.988;2023-03-20T05:58:58;97997.38;;;12.61;48.96
20350;BME280;10332;50.208;18.988;2023-03-20T06:01:26;98002.03;;;12.68;48.90
20350;BME280;10332;50.208;18.988;2023-03-20T06:03:53;97998.91;;;12.74;48.57
20350;BME280;10332;50.208;18.988;2023-03-20T06:06:21;97994.63;;;12.73;48.21
20350;BME280;10332;50.208;18.988;2023-03-20T06:08:49;97999.72;;;12.75;48.39
20350;BME280;10332;50.208;18.988;2023-03-20T06:11:16;97997.84;;;12.66;48.75
20350;BME280;10332;50.208;18.988;2023-03-20T06:13:44;97998.22;;;12.50;49.40
20350;BME280;10332;50.208;18.988;2023-03-20T06:16:11;98014.84;;;12.49;49.49
20350;BME280;10332;50.208;18.988;2023-03-20T06:18:39;98008.78;;;12.48;49.61
20350;BME280;10332;50.208;18.988;2023-03-20T06:21:06;98014.59;;;12.18;50.83
20350;BME280;10332;50.208;18.988;2023-03-20T06:23:34;98020.31;;;12.24;50.71
20350;BME280;10332;50.208;18.988;2023-03-20T06:26:02;98020.53;;;12.20;50.93
20350;BME280;10332;50.208;18.988;2023-03-20T06:28:30;98025.19;;;12.17;51.35
20350;BME280;10332;50.208;18.988;2023-03-20T06:30:57;98034.81;;;12.05;52.61
20350;BME280;10332;50.208;18.988;2023-03-20T06:33:25;98027.81;;;12.17;52.34
20350;BME280;10332;50.208;18.988;2023-03-20T06:35:53;98038.84;;;12.09;52.95
20350;BME280;10332;50.208;18.988;2023-03-20T06:38:21;98037.91;;;12.21;52.92
20350;BME280;10332;50.208;18.988;2023-03-20T06:40:48;98035.28;;;12.21;54.07
20350;BME280;10332;50.208;18.988;2023-03-20T06:43:16;98042.25;;;12.45;53.75
20350;BME280;10332;50.208;18.988;2023-03-20T06:45:43;98042.38;;;12.66;53.60
20350;BME280;10332;50.208;18.988;2023-03-20T06:48:11;98042.25;;;12.90;53.28
20350;BME280;10332;50.208;18.988;2023-03-20T06:50:38;98047.97;;;12.95;53.97
20350;BME280;10332;50.208;18.988;2023-03-20T06:53:06;98048.66;;;13.19;53.41
20350;BME280;10332;50.208;18.988;2023-03-20T06:55:33;98044.25;;;13.31;53.72
20350;BME280;10332;50.208;18.988;2023-03-20T06:58:01;98051.50;;;13.39;54.79
20350;BME280;10332;50.208;18.988;2023-03-20T07:00:28;98039.56;;;13.46;55.47
20350;BME280;10332;50.208;18.988;2023-03-20T07:02:56;98041.38;;;13.77;55.12
20350;BME280;10332;50.208;18.988;2023-03-20T07:05:23;98048.56;;;13.64;56.21
20350;BME280;10332;50.208;18.988;2023-03-20T07:07:51;98055.09;;;13.70;56.31
20350;BME280;10332;50.208;18.988;2023-03-20T07:10:19;98054.75;;;13.95;55.60
20350;BME280;10332;50.208;18.988;2023-03-20T07:12:46;98054.34;;;14.11;55.53
20350;BME280;10332;50.208;18.988;2023-03-20T07:15:14;98052.28;;;13.94;56.30
20350;BME280;10332;50.208;18.988;2023-03-20T07:17:42;98058.44;;;13.72;57.19
20350;BME280;10332;50.208;18.988;2023-03-20T07:20:10;98059.34;;;13.39;59.04
20350;BME280;10332;50.208;18.988;2023-03-20T07:22:40;98064.63;;;13.27;59.24
20350;BME280;10332;50.208;18.988;2023-03-20T07:25:09;98069.66;;;13.19;60.69
20350;BME280;10332;50.208;18.988;2023-03-20T07:27:37;98063.59;;;12.85;63.12
20350;BME280;10332;50.208;18.988;2023-03-20T07:30:06;98064.28;;;12.76;63.58
20350;BME280;10332;50.208;18.988;2023-03-20T07:32:35;98082.97;;;12.60;64.77
20350;BME280;10332;50.208;18.988;2023-03-20T07:35:04;98066.31;;;12.61;65.26
20350;BME280;10332;50.208;18.988;2023-03-20T07:37:32;98069.13;;;12.47;66.81
20350;BME280;10332;50.208;18.988;2023-03-20T07:40:00;98068.41;;;12.34;68.40
20350;BME280;10332;50.208;18.988;2023-03-20T07:42:27;98068.75;;;12.29;67.69
20350;BME280;10332;50.208;18.988;2023-03-20T07:44:54;98078.69;;;12.13;67.72
20350;BME280;10332;50.208;18.988;2023-03-20T07:47:22;98087.16;;;12.16;67.65
20350;BME280;10332;50.208;18.988;2023-03-20T07:49:50;98087.31;;;12.26;67.24
20350;BME280;10332;50.208;18.988;2023-03-20T07:52:18;98089.78;;;12.16;67.87
20350;BME280;10332;50.208;18.988;2023-03-20T07:54:46;98082.56;;;12.31;67.51
20350;BME280;10332;50.208;18.988;2023-03-20T07:57:13;98082.59;;;12.42;67.43
20350;BME280;10332;50.208;18.988;2023-03-20T07:59:40;98083.19;;;12.57;67.43
20350;BME280;10332;50.208;18.988;2023-03-20T08:02:14;98077.63;;;12.62;68.47
20350;BME280;10332;50.208;18.988;2023-03-20T08:04:43;98078.56;;;12.72;70.00
20350;BME280;10332;50.208;18.988;2023-03-20T08:07:11;98078.34;;;12.86;69.42
20350;BME280;10332;50.208;18.988;2023-03-20T08:09:39;98082.50;;;12.89;69.83
20350;BME280;10332;50.208;18.988;2023-03-20T08:12:07;98080.16;;;12.86;70.87
20350;BME280;10332;50.208;18.988;2023-03-20T08:14:34;98080.34;;;12.94;70.72
20350;BME280;10332;50.208;18.988;2023-03-20T08:17:04;98072.28;;;12.97;71.05
20350;BME280;10332;50.208;18.988;2023-03-20T08:19:41;98071.91;;;13.13;70.66
20350;BME280;10332;50.208;18.988;2023-03-20T08:22:09;98075.81;;;13.29;70.29
20350;BME280;10332;50.208;18.988;2023-03-20T08:24:37;98081.56;;;13.23;70.99
20350;BME280;10332;50.208;18.988;2023-03-20T08:27:04;98076.47;;;13.22;71.29
20350;BME280;10332;50.208;18.988;2023-03-20T08:29:32;98081.06;;;13.18;71.70
20350;BME280;10332;50.208;18.988;2023-03-20T08:32:00;98082.97;;;13.39;71.10
20350;BME280;10332;50.208;18.988;2023-03-20T08:34:27;98081.50;;;13.57;70.71
20350;BME280;10332;50.208;18.988;2023-03-20T08:36:54;98079.16;;;13.75;70.90
20350;BME280;10332;50.208;18.988;2023-03-20T08:39:22;98080.75;;;13.98;70.26
20350;BME280;10332;50.208;18.988;2023-03-20T08:41:49;98078.97;;;13.99;70.21
20350;BME280;10332;50.208;18.988;2023-03-20T08:44:17;98078.75;;;13.90;70.54
20350;BME280;10332;50.208;18.988;2023-03-20T08:46:44;98089.03;;;14.14;69.84
20350;BME280;10332;50.208;18.988;2023-03-20T08:49:13;98082.25;;;14.33;69.29
20350;BME280;10332;50.208;18.988;2023-03-20T08:51:40;98080.00;;;15.00;67.15
20350;BME280;10332;50.208;18.988;2023-03-20T08:54:09;98083.13;;;16.13;63.70
20350;BME280;10332;50.208;18.988;2023-03-20T08:56:36;98076.72;;;17.01;60.59
20350;BME280;10332;50.208;18.988;2023-03-20T08:59:04;98082.91;;;17.65;57.78
20350;BME280;10332;50.208;18.988;2023-03-20T09:01:31;98083.34;;;20.19;51.88
20350;BME280;10332;50.208;18.988;2023-03-20T09:04:15;98086.34;;;20.48;49.18
20350;BME280;10332;50.208;18.988;2023-03-20T09:06:43;98083.63;;;19.24;51.65
20350;BME280;10332;50.208;18.988;2023-03-20T09:09:11;98081.03;;;18.73;53.15
20350;BME280;10332;50.208;18.988;2023-03-20T09:11:42;98088.63;;;18.50;53.86
20350;BME280;10332;50.208;18.988;2023-03-20T09:14:10;98100.75;;;17.81;55.65
20350;BME280;10332;50.208;18.988;2023-03-20T09:16:37;98097.31;;;17.16;58.06
20350;BME280;10332;50.208;18.988;2023-03-20T09:19:05;98089.03;;;16.64;60.51
20350;BME280;10332;50.208;18.988;2023-03-20T09:21:32;98087.56;;;16.13;62.86
20350;BME280;10332;50.208;18.988;2023-03-20T09:24:00;98087.03;;;16.09;62.88
20350;BME280;10332;50.208;18.988;2023-03-20T09:26:27;98084.66;;;16.16;62.95
20350;BME280;10332;50.208;18.988;2023-03-20T09:28:55;98085.34;;;15.89;63.83
20350;BME280;10332;50.208;18.988;2023-03-20T09:31:22;98089.63;;;15.80;64.27
20350;BME280;10332;50.208;18.988;2023-03-20T09:33:50;98092.41;;;15.69;64.80
20350;BME280;10332;50.208;18.988;2023-03-20T09:36:18;98085.81;;;15.54;65.88
20350;BME280;10332;50.208;18.988;2023-03-20T09:38:45;98082.03;;;15.27;67.41
20350;BME280;10332;50.208;18.988;2023-03-20T09:41:20;98084.66;;;14.87;69.81
20350;BME280;10332;50.208;18.988;2023-03-20T09:44:17;98091.94;;;14.74;70.95
20350;BME280;10332;50.208;18.988;2023-03-20T09:50:29;98093.94;;;14.91;70.36
20350;BME280;10332;50.208;18.988;2023-03-20T09:55:43;98091.41;;;14.80;70.88
20350;BME280;10332;50.208;18.988;2023-03-20T09:58:30;98092.44;;;14.98;70.40
20350;BME280;10332;50.208;18.988;2023-03-20T10:01:00;98090.66;;;14.99;70.51
20350;BME280;10332;50.208;18.988;2023-03-20T10:03:41;98092.50;;;15.58;68.32
20350;BME280;10332;50.208;18.988;2023-03-20T10:06:15;98092.56;;;15.77;67.32
20350;BME280;10332;50.208;18.988;2023-03-20T10:08:44;98092.81;;;16.42;65.04
20350;BME280;10332;50.208;18.988;2023-03-20T10:11:43;98084.75;;;16.63;64.23
20350;BME280;10332;50.208;18.988;2023-03-20T10:14:43;98086.25;;;16.65;63.64
20350;BME280;10332;50.208;18.988;2023-03-20T10:19:57;98080.44;;;17.36;61.71
20350;BME280;10332;50.208;18.988;2023-03-20T10:22:33;98081.38;;;17.45;60.97
20350;BME280;10332;50.208;18.988;2023-03-20T10:25:23;98077.66;;;17.38;60.99
20350;BME280;10332;50.208;18.988;2023-03-20T10:28:03;98078.19;;;17.14;61.36
20350;BME280;10332;50.208;18.988;2023-03-20T10:33:50;98084.66;;;16.06;64.99
20350;BME280;10332;50.208;18.988;2023-03-20T10:40:02;98092.44;;;16.17;65.40
20350;BME280;10332;50.208;18.988;2023-03-20T10:42:44;98076.53;;;17.85;60.53
20350;BME280;10332;50.208;18.988;2023-03-20T10:45:37;98072.78;;;20.43;53.55
20350;BME280;10332;50.208;18.988;2023-03-20T10:48:37;98072.28;;;23.54;43.98
20350;BME280;10332;50.208;18.988;2023-03-20T10:51:13;98065.09;;;25.65;38.96
20350;BME280;10332;50.208;18.988;2023-03-20T10:54:05;98070.72;;;29.48;32.93
20350;BME280;10332;50.208;18.988;2023-03-20T10:56:43;98072.50;;;29.18;31.75
20350;BME280;10332;50.208;18.988;2023-03-20T10:59:34;98069.44;;;27.89;33.33
20350;BME280;10332;50.208;18.988;2023-03-20T11:02:13;98070.19;;;28.60;32.29
20350;BME280;10332;50.208;18.988;2023-03-20T11:04:41;98072.16;;;28.46;32.17
20350;BME280;10332;50.208;18.988;2023-03-20T11:09:36;98072.44;;;27.10;34.30
20350;BME280;10332;50.208;18.988;2023-03-20T11:12:04;98068.63;;;28.45;32.70
20350;BME280;10332;50.208;18.988;2023-03-20T11:14:38;98068.03;;;27.29;33.47
20350;BME280;10332;50.208;18.988;2023-03-20T11:17:06;98065.06;;;26.59;34.39
20350;BME280;10332;50.208;18.988;2023-03-20T11:19:37;98067.66;;;24.97;36.23
20350;BME280;10332;50.208;18.988;2023-03-20T11:24:50;98060.56;;;24.05;38.12
20350;BME280;10332;50.208;18.988;2023-03-20T11:27:31;98053.75;;;31.88;28.23
20350;BME280;10332;50.208;18.988;2023-03-20T11:30:04;98062.09;;;39.11;21.54
20350;BME280;10332;50.208;18.988;2023-03-20T11:32:46;98072.19;;;42.40;17.57
20350;BME280;10332;50.208;18.988;2023-03-20T11:38:05;98060.31;;;43.07;16.29
20350;BME280;10332;50.208;18.988;2023-03-20T11:40:35;98059.03;;;44.48;16.01
20350;BME280;10332;50.208;18.988;2023-03-20T11:45:57;98050.97;;;37.61;20.24
20350;BME280;10332;50.208;18.988;2023-03-20T11:48:37;98043.75;;;39.97;18.24
20350;BME280;10332;50.208;18.988;2023-03-20T11:51:16;98040.63;;;36.73;20.05
20350;BME280;10332;50.208;18.988;2023-03-20T11:56:27;98027.00;;;31.58;24.96
20350;BME280;10332;50.208;18.988;2023-03-20T12:01:49;98027.97;;;30.00;26.97
20350;BME280;10332;50.208;18.988;2023-03-20T12:04:35;98030.06;;;29.20;28.27
20350;BME280;10332;50.208;18.988;2023-03-20T12:07:24;98026.25;;;27.53;30.43
20350;BME280;10332;50.208;18.988;2023-03-20T12:10:10;98025.63;;;30.80;27.72
20350;BME280;10332;50.208;18.988;2023-03-20T12:12:55;98019.47;;;31.20;26.23
20350;BME280;10332;50.208;18.988;2023-03-20T12:15:31;98013.53;;;28.79;29.08
20350;BME280;10332;50.208;18.988;2023-03-20T12:21:22;98012.09;;;31.84;26.72
20350;BME280;10332;50.208;18.988;2023-03-20T12:26:44;98010.41;;;26.86;31.33
20350;BME280;10332;50.208;18.988;2023-03-20T12:29:46;98011.81;;;25.02;34.03
20350;BME280;10332;50.208;18.988;2023-03-20T12:32:41;98021.47;;;23.91;35.77
20350;BME280;10332;50.208;18.988;2023-03-20T12:35:20;98013.34;;;24.27;35.75
20350;BME280;10332;50.208;18.988;2023-03-20T12:37:50;98017.72;;;24.35;35.44
20350;BME280;10332;50.208;18.988;2023-03-20T12:40:31;98011.78;;;23.69;36.70
20350;BME280;10332;50.208;18.988;2023-03-20T12:43:11;98022.19;;;22.83;38.00
20350;BME280;10332;50.208;18.988;2023-03-20T12:54:30;98014.06;;;20.46;43.83
20350;BME280;10332;50.208;18.988;2023-03-20T13:02:50;98006.78;;;19.67;46.81
20350;BME280;10332;50.208;18.988;2023-03-20T13:08:31;98009.53;;;19.49;46.75
20350;BME280;10332;50.208;18.988;2023-03-20T13:31:50;97997.25;;;18.81;49.55
20350;BME280;10332;50.208;18.988;2023-03-20T13:34:46;97991.50;;;18.60;50.38
20350;BME280;10332;50.208;18.988;2023-03-20T13:37:40;97996.94;;;18.24;51.35
20350;BME280;10332;50.208;18.988;2023-03-20T13:40:15;97992.19;;;18.10;51.77
20350;BME280;10332;50.208;18.988;2023-03-20T13:42:59;97992.75;;;17.96;52.20
20350;BME280;10332;50.208;18.988;2023-03-20T13:45:39;97987.47;;;17.78;53.46
20350;BME280;10332;50.208;18.988;2023-03-20T13:48:26;97993.13;;;17.65;53.58
20350;BME280;10332;50.208;18.988;2023-03-20T13:51:40;97982.94;;;17.52;54.60
20350;BME280;10332;50.208;18.988;2023-03-20T14:05:42;97991.44;;;18.18;53.25
20350;BME280;10332;50.208;18.988;2023-03-20T14:08:34;97990.16;;;18.04;53.34
20350;BME280;10332;50.208;18.988;2023-03-20T14:13:51;97990.25;;;17.58;55.23
20350;BME280;10332;50.208;18.988;2023-03-20T14:16:21;97996.75;;;17.64;54.91
20350;BME280;10332;50.208;18.988;2023-03-20T14:21:44;97988.78;;;17.11;56.97
20350;BME280;10332;50.208;18.988;2023-03-20T14:24:15;97989.22;;;17.06;56.92
20350;BME280;10332;50.208;18.988;2023-03-20T14:26:58;97989.63;;;16.84;57.96
20350;BME280;10332;50.208;18.988;2023-03-20T14:29:37;97992.69;;;16.79;58.30
20350;BME280;10332;50.208;18.988;2023-03-20T14:38:08;98000.41;;;16.43;61.26
20350;BME280;10332;50.208;18.988;2023-03-20T15:06:26;97981.81;;;15.98;64.01
20350;BME280;10332;50.208;18.988;2023-03-20T15:09:04;97975.69;;;16.07;63.47
20350;BME280;10332;50.208;18.988;2023-03-20T15:11:34;97973.22;;;16.06;64.41
20350;BME280;10332;50.208;18.988;2023-03-20T15:14:06;97972.09;;;16.08;64.26
20350;BME280;10332;50.208;18.988;2023-03-20T15:16:36;97975.44;;;16.10;64.56
20350;BME280;10332;50.208;18.988;2023-03-20T15:19:16;97972.22;;;16.07;64.85
20350;BME280;10332;50.208;18.988;2023-03-20T15:21:45;97961.84;;;16.05;65.17
20350;BME280;10332;50.208;18.988;2023-03-20T15:24:28;97969.44;;;16.08;64.48
20350;BME280;10332;50.208;18.988;2023-03-20T15:27:00;97967.91;;;16.15;63.84
20350;BME280;10332;50.208;18.988;2023-03-20T15:29:29;97967.25;;;16.13;63.78
20350;BME280;10332;50.208;18.988;2023-03-20T15:32:01;97973.78;;;16.09;64.50
20350;BME280;10332;50.208;18.988;2023-03-20T15:34:42;97972.09;;;16.08;64.15
20350;BME280;10332;50.208;18.988;2023-03-20T15:37:18;97961.03;;;16.05;64.01
20350;BME280;10332;50.208;18.988;2023-03-20T15:39:51;97961.84;;;16.05;63.92
20350;BME280;10332;50.208;18.988;2023-03-20T15:42:24;97967.25;;;16.04;64.15
20350;BME280;10332;50.208;18.988;2023-03-20T15:44:54;97968.53;;;16.00;64.03
20350;BME280;10332;50.208;18.988;2023-03-20T15:47:24;97965.47;;;15.95;64.44
20350;BME280;10332;50.208;18.988;2023-03-20T15:49:58;97968.53;;;15.90;65.21
20350;BME280;10332;50.208;18.988;2023-03-20T15:52:44;97964.94;;;15.91;64.67
20350;BME280;10332;50.208;18.988;2023-03-20T15:55:22;97962.03;;;15.94;64.70
20350;BME280;10332;50.208;18.988;2023-03-20T15:57:55;97970.88;;;15.93;64.85
20350;BME280;10332;50.208;18.988;2023-03-20T16:00:33;97972.41;;;15.86;65.65
20350;BME280;10332;50.208;18.988;2023-03-20T16:03:11;97968.69;;;15.79;66.20
20350;BME280;10332;50.208;18.988;2023-03-20T16:05:43;97971.03;;;15.72;66.49